createdAt,value
2022-11-28T00:03:47.332Z,5.97
2022-11-28T00:05:49.128Z,6.22
2022-11-28T00:07:51.122Z,5.50
2022-11-28T00:09:53.087Z,6.65
2022-11-28T00:11:54.657Z,6.28
2022-11-28T00:13:56.255Z,6.85
2022-11-28T00:15:58.534Z,6.45
2022-11-28T00:18:00.377Z,6.60
2022-11-28T00:20:04.575Z,6.60
2022-11-28T00:22:06.592Z,6.25
2022-11-28T00:24:08.767Z,6.43
2022-11-28T00:26:12.765Z,7.22
2022-11-28T00:28:14.485Z,6.68
2022-11-28T00:32:17.992Z,6.50
2022-11-28T00:34:20.343Z,6.20
2022-11-28T00:36:23.986Z,7.07
2022-11-28T00:38:25.556Z,6.65
2022-11-28T00:40:27.366Z,6.22
2022-11-28T00:42:29.231Z,6.38
2022-11-28T00:44:30.896Z,7.13
2022-11-28T00:48:34.655Z,6.82
2022-11-28T00:50:36.427Z,5.95
2022-11-28T00:52:39.870Z,5.88
2022-11-28T00:54:41.841Z,7.35
2022-11-28T00:56:43.827Z,6.75
2022-11-28T01:00:47.445Z,6.28
2022-11-28T01:02:49.187Z,6.82
2022-11-28T01:04:51.229Z,6.32
2022-11-28T01:06:53.168Z,6.45
2022-11-28T01:08:58.351Z,7.03
2022-11-28T01:11:00.649Z,7.57
2022-11-28T01:13:02.284Z,6.70
2022-11-28T01:17:05.835Z,6.55
2022-11-28T01:21:09.775Z,7.10
2022-11-28T01:23:11.803Z,7.38
2022-11-28T01:25:14.942Z,7.35
2022-11-28T01:27:16.700Z,7.07
2022-11-28T01:29:18.264Z,7.20
2022-11-28T01:31:22.344Z,7.72
2022-11-28T01:33:24.213Z,7.55
2022-11-28T01:35:25.876Z,7.70
2022-11-28T01:39:30.395Z,7.70
2022-11-28T01:43:35.758Z,7.07
2022-11-28T01:45:38.041Z,7.78
2022-11-28T01:47:40.759Z,7.72
2022-11-28T01:49:43.595Z,7.95
2022-11-28T01:51:47.863Z,7.93
2022-11-28T01:53:49.648Z,7.68
2022-11-28T01:55:56.035Z,7.72
2022-11-28T01:57:59.349Z,7.50
2022-11-28T02:00:05.022Z,7.97
2022-11-28T02:02:13.534Z,8.60
2022-11-28T02:04:15.260Z,7.28
2022-11-28T02:08:20.309Z,7.70
2022-11-28T02:10:25.939Z,7.20
2022-11-28T02:12:40.234Z,6.88
2022-11-28T02:15:01.729Z,7.32
2022-11-28T02:17:15.618Z,7.47
2022-11-28T02:19:58.702Z,7.18
2022-11-28T02:22:05.104Z,6.95
2022-11-28T02:24:46.366Z,7.32
2022-11-28T02:27:10.056Z,7.55
2022-11-28T02:29:47.315Z,6.72
2022-11-28T02:32:10.686Z,6.57
2022-11-28T02:34:19.413Z,7.70
2022-11-28T02:36:29.612Z,6.65
2022-11-28T02:38:42.684Z,7.72
2022-11-28T02:40:54.610Z,6.95
2022-11-28T02:43:05.381Z,7.00
2022-11-28T02:45:13.564Z,6.18
2022-11-28T02:47:23.466Z,6.93
2022-11-28T02:49:33.075Z,6.60
2022-11-28T02:51:39.969Z,6.90
2022-11-28T02:53:43.521Z,6.60
2022-11-28T02:55:45.364Z,6.63
2022-11-28T02:57:49.553Z,7.03
2022-11-28T02:59:51.726Z,6.72
2022-11-28T03:01:53.637Z,6.53
2022-11-28T03:04:18.970Z,6.72
2022-11-28T03:06:32.953Z,6.97
2022-11-28T03:08:51.457Z,6.47
2022-11-28T03:10:59.559Z,6.68
2022-11-28T03:15:12.071Z,7.10
2022-11-28T03:17:21.588Z,6.45
2022-11-28T03:19:30.543Z,6.80
2022-11-28T03:21:39.078Z,6.38
2022-11-28T03:23:46.261Z,7.75
2022-11-28T03:25:58.154Z,6.55
2022-11-28T03:28:07.479Z,7.15
2022-11-28T03:30:14.777Z,6.85
2022-11-28T03:32:20.608Z,6.70
2022-11-28T03:34:27.753Z,7.20
2022-11-28T03:36:34.724Z,6.50
2022-11-28T03:38:39.803Z,6.70
2022-11-28T03:40:46.586Z,6.05
2022-11-28T03:42:53.889Z,6.28
2022-11-28T03:44:59.052Z,6.97
2022-11-28T03:47:02.719Z,7.50
2022-11-28T03:49:06.751Z,6.40
2022-11-28T03:51:15.123Z,6.30
2022-11-28T03:53:20.869Z,6.72
2022-11-28T03:55:27.872Z,6.72
2022-11-28T03:57:34.064Z,6.88
2022-11-28T03:59:38.362Z,6.38
2022-11-28T04:01:53.506Z,6.95
2022-11-28T04:04:04.874Z,6.50
2022-11-28T04:06:16.261Z,7.43
2022-11-28T04:08:22.004Z,6.40
2022-11-28T04:10:31.866Z,7.68
2022-11-28T04:12:44.921Z,7.68
2022-11-28T04:14:51.448Z,7.00
2022-11-28T04:16:57.957Z,7.30
2022-11-28T04:19:04.982Z,6.68
2022-11-28T04:21:13.331Z,6.78
2022-11-28T04:23:19.913Z,6.93
2022-11-28T04:25:25.990Z,6.47
2022-11-28T04:27:32.450Z,6.68
2022-11-28T04:29:39.539Z,7.10
2022-11-28T04:31:44.603Z,6.28
2022-11-28T04:33:51.128Z,7.30
2022-11-28T04:35:55.817Z,6.68
2022-11-28T04:38:00.174Z,6.93
2022-11-28T04:40:07.392Z,6.72
2022-11-28T04:42:13.442Z,6.93
2022-11-28T04:44:19.683Z,6.68
2022-11-28T04:46:25.258Z,6.72
2022-11-28T04:48:32.772Z,7.25
2022-11-28T04:50:42.442Z,7.05
2022-11-28T04:52:51.578Z,6.97
2022-11-28T04:55:00.517Z,7.53
2022-11-28T04:57:12.207Z,7.15
2022-11-28T04:59:15.201Z,6.70
2022-11-28T05:01:24.246Z,7.80
2022-11-28T05:03:28.962Z,7.22
2022-11-28T05:05:31.051Z,6.80
2022-11-28T05:07:32.737Z,6.45
2022-11-28T05:11:36.359Z,5.95
2022-11-28T05:13:39.496Z,7.22
2022-11-28T05:15:41.256Z,6.95
2022-11-28T05:17:42.956Z,7.75
2022-11-28T05:21:45.857Z,7.40
2022-11-28T05:23:48.065Z,6.65
2022-11-28T05:25:49.603Z,6.30
2022-11-28T05:27:51.134Z,7.07
2022-11-28T05:29:54.071Z,6.70
2022-11-28T05:31:55.655Z,6.28
2022-11-28T05:33:57.288Z,6.65
2022-11-28T05:36:04.737Z,6.85
2022-11-28T05:38:13.374Z,6.97
2022-11-28T05:40:15.441Z,6.75
2022-11-28T05:44:21.622Z,6.47
2022-11-28T05:46:28.072Z,6.53
2022-11-28T05:48:29.615Z,6.25
2022-11-28T05:50:33.702Z,6.68
2022-11-28T05:52:38.678Z,7.03
2022-11-28T05:54:40.283Z,6.70
2022-11-28T05:56:42.599Z,6.50
2022-11-28T05:58:45.026Z,6.60
2022-11-28T06:00:46.596Z,7.05
2022-11-28T06:02:49.532Z,7.13
2022-11-28T06:04:51.161Z,6.60
2022-11-28T06:08:55.108Z,6.53
2022-11-28T06:10:57.186Z,6.85
2022-11-28T06:12:58.734Z,7.13
2022-11-28T06:15:00.265Z,7.07
2022-11-28T06:17:01.852Z,7.47
2022-11-28T06:19:05.980Z,7.57
2022-11-28T06:21:09.325Z,7.90
2022-11-28T06:23:10.928Z,7.65
2022-11-28T06:25:12.629Z,6.68
2022-11-28T06:29:15.753Z,7.25
2022-11-28T06:31:19.520Z,7.13
2022-11-28T06:33:21.208Z,8.15
2022-11-28T06:35:24.099Z,5.97
2022-11-28T06:37:25.710Z,7.30
2022-11-28T06:39:27.317Z,7.82
2022-11-28T06:41:28.886Z,7.97
2022-11-28T06:43:30.870Z,6.68
2022-11-28T06:45:33.504Z,7.18
2022-11-28T06:47:35.193Z,7.65
2022-11-28T06:51:39.857Z,7.45
2022-11-28T06:53:41.544Z,7.32
2022-11-28T06:57:44.738Z,7.00
2022-11-28T06:59:47.915Z,7.20
2022-11-28T07:01:49.558Z,7.60
2022-11-28T07:05:52.681Z,6.80
2022-11-28T07:07:55.685Z,7.68
2022-11-28T07:09:57.292Z,7.70
2022-11-28T07:11:58.898Z,7.45
2022-11-28T07:14:02.012Z,7.88
2022-11-28T07:16:03.793Z,6.85
2022-11-28T07:18:05.732Z,7.80
2022-11-28T07:20:08.676Z,8.40
2022-11-28T07:22:10.583Z,7.65
2022-11-28T07:24:13.681Z,8.27
2022-11-28T07:26:19.086Z,8.10
2022-11-28T07:28:23.269Z,7.90
2022-11-28T07:30:25.326Z,8.13
2022-11-28T07:34:28.293Z,7.68
2022-11-28T07:36:30.165Z,8.32
2022-11-28T07:38:31.922Z,8.85
2022-11-28T07:42:36.213Z,7.80
2022-11-28T07:44:37.854Z,7.30
2022-11-28T07:46:39.567Z,8.52
2022-11-28T07:48:41.435Z,7.30
2022-11-28T07:50:43.008Z,8.52
2022-11-28T07:52:44.515Z,8.80
2022-11-28T07:54:46.076Z,7.97
2022-11-28T07:59:10.688Z,8.10
2022-11-28T08:01:14.602Z,8.05
2022-11-28T08:03:16.186Z,8.25
2022-11-28T08:05:17.843Z,9.05
2022-11-28T08:07:19.575Z,8.82
2022-11-28T08:11:24.797Z,7.35
2022-11-28T08:13:27.784Z,8.23
2022-11-28T08:15:29.352Z,9.45
2022-11-28T08:17:30.884Z,8.27
2022-11-28T08:19:35.339Z,8.23
2022-11-28T08:21:37.493Z,7.95
2022-11-28T08:23:39.957Z,8.23
2022-11-28T08:25:41.593Z,8.15
2022-11-28T08:27:43.274Z,8.23
2022-11-28T08:31:53.709Z,8.40
2022-11-28T08:33:57.634Z,8.93
2022-11-28T08:35:59.346Z,8.52
2022-11-28T08:40:04.532Z,7.93
2022-11-28T08:42:06.249Z,8.32
2022-11-28T08:46:12.424Z,8.13
2022-11-28T08:48:13.994Z,7.85
2022-11-28T08:50:15.687Z,7.40
2022-11-28T08:54:18.810Z,8.13
2022-11-28T08:56:20.364Z,8.05
2022-11-28T08:58:21.920Z,8.27
2022-11-28T09:00:23.804Z,8.13
2022-11-28T09:02:26.689Z,7.72
2022-11-28T09:04:29.017Z,8.18
2022-11-28T09:06:30.530Z,8.40
2022-11-28T09:08:32.046Z,8.10
2022-11-28T09:10:35.855Z,9.23
2022-11-28T09:12:37.384Z,8.77
2022-11-28T09:14:39.090Z,8.63
2022-11-28T09:18:43.910Z,8.30
2022-11-28T09:20:45.405Z,8.10
2022-11-28T09:22:47.039Z,8.38
2022-11-28T09:24:48.603Z,9.30
2022-11-28T09:26:50.114Z,8.25
2022-11-28T09:28:52.387Z,7.93
2022-11-28T09:31:00.230Z,8.00
2022-11-28T09:33:01.795Z,8.55
2022-11-28T09:35:05.689Z,8.55
2022-11-28T09:37:07.217Z,9.60
2022-11-28T09:39:08.748Z,8.00
2022-11-28T09:41:33.306Z,8.00
2022-11-28T09:43:38.199Z,8.07
2022-11-28T09:45:40.272Z,9.50
2022-11-28T09:47:45.643Z,8.75
2022-11-28T09:49:50.646Z,8.75
2022-11-28T09:51:59.157Z,8.93
2022-11-28T09:54:10.573Z,8.23
2022-11-28T09:56:16.210Z,9.18
2022-11-28T09:58:26.582Z,8.93
2022-11-28T10:00:34.993Z,9.27
2022-11-28T10:02:44.720Z,8.68
2022-11-28T10:04:52.217Z,9.30
2022-11-28T10:07:05.169Z,8.90
2022-11-28T10:09:22.451Z,9.43
2022-11-28T10:11:38.022Z,8.90
2022-11-28T10:16:20.506Z,8.00
2022-11-28T10:18:38.295Z,8.82
2022-11-28T10:20:45.440Z,8.35
2022-11-28T10:22:55.396Z,7.78
2022-11-28T10:25:03.472Z,8.93
2022-11-28T10:29:24.321Z,8.48
2022-11-28T10:31:33.198Z,8.88
2022-11-28T10:33:41.798Z,9.45
2022-11-28T10:35:46.450Z,7.93
2022-11-28T10:37:51.900Z,8.32
2022-11-28T10:39:55.583Z,8.63
2022-11-28T10:42:03.530Z,8.82
2022-11-28T10:44:21.142Z,8.90
2022-11-28T10:46:38.162Z,8.32
2022-11-28T10:48:50.154Z,8.50
2022-11-28T10:51:02.399Z,8.57
2022-11-28T10:53:14.186Z,8.57
2022-11-28T10:55:30.601Z,8.57
2022-11-28T10:57:38.857Z,8.82
2022-11-28T10:59:56.398Z,9.00
2022-11-28T11:02:00.815Z,8.73
2022-11-28T11:04:02.676Z,8.25
2022-11-28T11:06:04.811Z,8.48
2022-11-28T11:08:19.241Z,8.18
2022-11-28T11:10:25.228Z,9.25
2022-11-28T11:12:31.245Z,9.13
2022-11-28T11:14:35.765Z,9.30
2022-11-28T11:16:48.563Z,8.18
2022-11-28T11:18:52.860Z,9.15
2022-11-28T11:21:08.086Z,9.50
2022-11-28T11:23:17.866Z,8.80
2022-11-28T11:25:19.406Z,8.57
2022-11-28T11:27:22.790Z,8.23
2022-11-28T11:29:32.213Z,8.70
2022-11-28T11:31:42.498Z,8.65
2022-11-28T11:33:45.060Z,8.52
2022-11-28T11:35:48.780Z,8.18
2022-11-28T11:37:51.008Z,8.52
2022-11-28T11:39:54.125Z,8.10
2022-11-28T11:42:11.477Z,9.15
2022-11-28T11:44:28.613Z,9.23
2022-11-28T11:46:30.172Z,8.10
2022-11-28T11:48:38.417Z,8.23
2022-11-28T11:50:53.588Z,9.02
2022-11-28T11:53:06.823Z,8.45
2022-11-28T11:55:13.801Z,8.07
2022-11-28T11:57:32.558Z,9.48
2022-11-28T11:59:41.383Z,8.75
2022-11-28T12:01:45.515Z,8.95
2022-11-28T12:03:53.676Z,7.63
2022-11-28T12:06:14.926Z,8.20
2022-11-28T12:08:22.626Z,8.52
2022-11-28T12:10:29.527Z,8.57
2022-11-28T12:12:34.997Z,7.75
2022-11-28T12:14:38.650Z,8.25
2022-11-28T12:16:49.092Z,7.57
2022-11-28T12:19:00.205Z,7.65
2022-11-28T12:21:10.380Z,8.43
2022-11-28T12:23:27.945Z,7.95
2022-11-28T12:25:37.250Z,8.15
2022-11-28T12:27:59.131Z,7.72
2022-11-28T12:30:20.158Z,7.50
2022-11-28T12:32:35.959Z,8.00
2022-11-28T12:34:50.758Z,7.70
2022-11-28T12:37:02.851Z,7.47
2022-11-28T12:39:16.807Z,7.55
2022-11-28T12:41:36.946Z,6.85
2022-11-28T12:43:50.910Z,7.15
2022-11-28T12:45:59.685Z,7.68
2022-11-28T12:48:12.772Z,7.05
2022-11-28T12:50:26.026Z,6.93
2022-11-28T12:52:36.448Z,7.53
2022-11-28T12:55:00.438Z,7.78
2022-11-28T12:57:10.097Z,7.63
2022-11-28T12:59:22.108Z,6.53
2022-11-28T13:01:44.207Z,7.68
2022-11-28T13:04:01.304Z,7.07
2022-11-28T13:06:16.679Z,7.20
2022-11-28T13:08:46.470Z,7.45
2022-11-28T13:10:56.244Z,7.50
2022-11-28T13:13:06.431Z,7.47
2022-11-28T13:15:17.227Z,8.32
2022-11-28T13:17:28.947Z,7.90
2022-11-28T13:19:41.690Z,8.43
2022-11-28T13:21:49.321Z,7.82
2022-11-28T13:24:05.314Z,7.50
2022-11-28T13:26:14.224Z,8.43
2022-11-28T13:28:22.134Z,8.15
2022-11-28T13:30:25.923Z,9.02
2022-11-28T13:32:38.118Z,8.27
2022-11-28T13:34:40.275Z,8.23
2022-11-28T13:39:19.538Z,8.27
2022-11-28T13:42:06.035Z,9.13
2022-11-28T13:43:59.015Z,7.88
2022-11-28T13:46:01.159Z,8.90
2022-11-28T13:49:13.048Z,8.15
2022-11-28T13:51:20.064Z,8.35
2022-11-28T13:53:24.859Z,8.40
2022-11-28T13:55:38.045Z,9.07
2022-11-28T13:57:39.817Z,9.07
2022-11-28T13:59:49.039Z,8.50
2022-11-28T14:01:57.496Z,8.63
2022-11-28T14:04:08.034Z,8.15
2022-11-28T14:06:12.073Z,8.55
2022-11-28T14:08:28.136Z,9.57
2022-11-28T14:10:38.831Z,9.20
2022-11-28T14:12:52.451Z,9.80
2022-11-28T14:15:16.906Z,8.40
2022-11-28T14:17:38.041Z,8.80
2022-11-28T14:19:57.529Z,9.50
2022-11-28T14:22:12.362Z,8.40
2022-11-28T14:24:24.291Z,8.63
2022-11-28T14:26:32.042Z,10.55
2022-11-28T14:28:37.675Z,9.02
2022-11-28T14:30:43.268Z,9.23
2022-11-28T14:32:44.877Z,9.00
2022-11-28T14:36:49.313Z,8.80
2022-11-28T14:41:03.466Z,8.90
2022-11-28T14:43:27.601Z,9.85
2022-11-28T14:45:44.573Z,12.20
2022-11-28T14:48:07.177Z,10.95
2022-11-28T14:50:55.937Z,9.10
2022-11-28T14:53:42.165Z,9.98
2022-11-28T14:55:43.746Z,9.98
2022-11-28T14:57:55.146Z,9.10
2022-11-28T14:59:59.593Z,9.48
2022-11-28T15:02:08.952Z,10.07
2022-11-28T15:04:27.087Z,9.38
2022-11-28T15:06:33.375Z,9.23
2022-11-28T15:08:49.285Z,13.02
2022-11-28T15:10:58.836Z,10.80
2022-11-28T15:13:14.743Z,9.93
2022-11-28T15:15:16.340Z,11.63
2022-11-28T15:17:24.828Z,10.80
2022-11-28T15:19:29.079Z,12.63
2022-11-28T15:21:30.824Z,12.35
2022-11-28T15:25:35.441Z,9.20
2022-11-28T15:27:37.154Z,9.82
2022-11-28T15:31:43.016Z,8.52
2022-11-28T15:33:46.023Z,9.52
2022-11-28T15:35:59.335Z,10.15
2022-11-28T15:38:00.903Z,9.82
2022-11-28T15:40:05.131Z,10.75
2022-11-28T15:42:09.310Z,10.82
2022-11-28T15:44:15.180Z,10.13
2022-11-28T15:46:19.903Z,10.27
2022-11-28T15:48:38.993Z,9.85
2022-11-28T15:50:50.161Z,10.77
2022-11-28T15:52:59.740Z,10.30
2022-11-28T15:55:01.262Z,10.75
2022-11-28T15:57:03.508Z,11.48
2022-11-28T15:59:05.024Z,10.70
2022-11-28T16:01:13.661Z,11.82
2022-11-28T16:03:18.692Z,10.18
2022-11-28T16:05:21.684Z,10.65
2022-11-28T16:07:24.895Z,10.63
2022-11-28T16:09:30.431Z,10.95
2022-11-28T16:11:34.568Z,10.18
2022-11-28T16:13:38.065Z,11.30
2022-11-28T16:15:39.857Z,11.02
2022-11-28T16:17:41.836Z,11.48
2022-11-28T16:19:44.395Z,11.80
2022-11-28T16:21:52.266Z,11.38
2022-11-28T16:23:55.583Z,11.68
2022-11-28T16:26:02.318Z,9.98
2022-11-28T16:28:04.111Z,11.65
2022-11-28T16:30:34.917Z,10.98
2022-11-28T16:32:39.962Z,10.63
2022-11-28T16:34:46.404Z,11.30
2022-11-28T16:36:49.456Z,11.25
2022-11-28T16:38:53.403Z,11.52
2022-11-28T16:41:00.886Z,11.10
2022-11-28T16:43:02.468Z,10.85
2022-11-28T16:45:10.174Z,10.73
2022-11-28T16:47:25.417Z,10.35
2022-11-28T16:49:34.175Z,11.60
2022-11-28T16:51:40.148Z,11.27
2022-11-28T16:53:44.399Z,12.45
2022-11-28T16:55:46.127Z,11.50
2022-11-28T16:59:56.309Z,10.45
2022-11-28T17:01:57.891Z,11.35
2022-11-28T17:06:00.966Z,10.68
2022-11-28T17:08:02.572Z,11.82
2022-11-28T17:10:04.993Z,12.23
2022-11-28T17:12:10.895Z,11.77
2022-11-28T17:14:14.268Z,12.63
2022-11-28T17:16:18.322Z,12.15
2022-11-28T17:18:19.947Z,12.35
2022-11-28T17:20:21.524Z,13.63
2022-11-28T17:22:25.629Z,12.63
2022-11-28T17:24:32.599Z,12.30
2022-11-28T17:26:34.213Z,12.95
2022-11-28T17:28:36.366Z,11.38
2022-11-28T17:30:39.337Z,12.55
2022-11-28T17:32:40.883Z,13.52
2022-11-28T17:34:42.967Z,13.18
2022-11-28T17:36:45.273Z,12.02
2022-11-28T17:38:46.822Z,12.30
2022-11-28T17:40:48.488Z,12.20
2022-11-28T17:44:51.425Z,13.32
2022-11-28T17:46:55.813Z,12.43
2022-11-28T17:48:57.607Z,13.32
2022-11-28T17:50:59.166Z,13.73
2022-11-28T17:53:00.736Z,12.60
2022-11-28T17:55:06.590Z,12.90
2022-11-28T17:57:09.474Z,13.73
2022-11-28T17:59:11.819Z,14.55
2022-11-28T18:01:17.900Z,13.55
2022-11-28T18:03:21.039Z,12.77
2022-11-28T18:05:22.733Z,13.50
2022-11-28T18:09:25.764Z,14.02
2022-11-28T18:11:27.783Z,13.25
2022-11-28T18:13:29.321Z,14.60
2022-11-28T18:15:31.580Z,14.80
2022-11-28T18:17:33.094Z,13.98
2022-11-28T18:19:36.102Z,15.20
2022-11-28T18:21:37.717Z,13.50
2022-11-28T18:23:39.934Z,14.35
2022-11-28T18:25:42.360Z,15.80
2022-11-28T18:27:43.847Z,15.23
2022-11-28T18:29:45.667Z,15.20
2022-11-28T18:31:47.725Z,14.80
2022-11-28T18:33:49.333Z,18.52
2022-11-28T18:35:52.405Z,16.20
2022-11-28T18:37:53.959Z,15.32
2022-11-28T18:39:57.806Z,14.05
2022-11-28T18:41:59.358Z,15.40
2022-11-28T18:44:02.503Z,13.70
2022-11-28T18:46:04.704Z,15.45
2022-11-28T18:48:06.515Z,15.68
2022-11-28T18:50:08.862Z,14.95
2022-11-28T18:52:11.789Z,15.38
2022-11-28T18:54:19.279Z,15.25
2022-11-28T18:56:23.328Z,14.43
2022-11-28T18:58:24.896Z,15.48
2022-11-28T19:00:26.580Z,14.73
2022-11-28T19:04:29.999Z,14.05
2022-11-28T19:06:31.912Z,16.42
2022-11-28T19:08:35.293Z,14.50
2022-11-28T19:10:37.653Z,15.00
2022-11-28T19:12:39.330Z,15.25
2022-11-28T19:16:42.406Z,13.63
2022-11-28T19:20:45.574Z,15.60
2022-11-28T19:22:47.135Z,15.40
2022-11-28T19:24:50.020Z,15.57
2022-11-28T19:26:51.523Z,16.02
2022-11-28T19:28:53.871Z,15.50
2022-11-28T19:30:55.633Z,15.65
2022-11-28T19:32:57.217Z,15.77
2022-11-28T19:34:58.737Z,15.32
2022-11-28T19:37:00.296Z,14.68
2022-11-28T19:39:02.205Z,15.65
2022-11-28T19:41:07.183Z,41.80
2022-11-28T19:43:08.837Z,16.15
2022-11-28T19:45:11.088Z,18.05
2022-11-28T19:47:12.646Z,25.48
2022-11-28T19:49:17.452Z,22.48
2022-11-28T19:51:19.551Z,16.17
2022-11-28T19:53:22.053Z,15.88
2022-11-28T19:55:23.635Z,15.60
2022-11-28T19:57:26.709Z,16.00
2022-11-28T19:59:28.300Z,15.60
2022-11-28T20:01:30.009Z,16.40
2022-11-28T20:03:32.250Z,15.32
2022-11-28T20:05:35.851Z,15.38
2022-11-28T20:07:37.473Z,15.45
2022-11-28T20:09:42.799Z,14.38
2022-11-28T20:11:44.883Z,15.43
2022-11-28T20:15:49.521Z,15.15
2022-11-28T20:17:51.138Z,15.60
2022-11-28T20:19:52.675Z,14.52
2022-11-28T20:21:54.612Z,14.15
2022-11-28T20:23:57.780Z,16.10
2022-11-28T20:26:03.568Z,14.45
2022-11-28T20:28:05.142Z,15.88
2022-11-28T20:30:09.638Z,15.73
2022-11-28T20:32:12.410Z,16.52
2022-11-28T20:34:15.075Z,15.98
2022-11-28T20:36:17.756Z,14.70
2022-11-28T20:38:22.391Z,15.68
2022-11-28T20:40:24.085Z,14.68
2022-11-28T20:44:26.997Z,14.50
2022-11-28T20:46:31.760Z,14.05
2022-11-28T20:48:33.626Z,15.68
2022-11-28T20:50:35.228Z,14.55
2022-11-28T20:52:36.763Z,14.77
2022-11-28T20:54:38.309Z,15.60
2022-11-28T20:57:12.899Z,14.98
2022-11-28T20:59:02.614Z,14.07
2022-11-28T21:01:04.464Z,14.35
2022-11-28T21:03:07.512Z,15.13
2022-11-28T21:05:09.580Z,15.10
2022-11-28T21:07:11.179Z,14.38
2022-11-28T21:09:13.270Z,15.23
2022-11-28T21:11:36.576Z,14.93
2022-11-28T21:13:38.376Z,15.13
2022-11-28T21:15:40.981Z,14.93
2022-11-28T21:17:42.541Z,15.25
2022-11-28T21:19:45.774Z,14.95
2022-11-28T21:21:47.541Z,14.63
2022-11-28T21:23:49.907Z,15.13
2022-11-28T21:25:51.492Z,15.63
2022-11-28T21:27:53.076Z,14.88
2022-11-28T21:29:54.623Z,14.02
2022-11-28T21:31:56.256Z,16.33
2022-11-28T21:36:01.754Z,14.50
2022-11-28T21:38:03.478Z,13.98
2022-11-28T21:42:07.101Z,14.55
2022-11-28T21:44:08.816Z,14.13
2022-11-28T21:48:12.044Z,15.48
2022-11-28T21:50:14.320Z,14.98
2022-11-28T21:52:17.448Z,14.00
2022-11-28T21:54:19.021Z,15.65
2022-11-28T21:56:20.574Z,14.48
2022-11-28T21:58:26.680Z,14.27
2022-11-28T22:00:52.177Z,14.90
2022-11-28T22:02:50.010Z,14.93
2022-11-28T22:04:51.640Z,15.23
2022-11-28T22:06:53.238Z,15.45
2022-11-28T22:08:56.619Z,15.25
2022-11-28T22:10:58.311Z,15.52
2022-11-28T22:15:01.252Z,14.85
2022-11-28T22:17:02.842Z,14.65
2022-11-28T22:19:07.105Z,14.40
2022-11-28T22:21:49.391Z,14.80
2022-11-28T22:23:34.372Z,14.63
2022-11-28T22:25:37.305Z,15.93
2022-11-28T22:27:39.003Z,14.90
2022-11-28T22:31:42.090Z,13.32
2022-11-28T22:33:44.235Z,13.45
2022-11-28T22:35:45.808Z,13.88
2022-11-28T22:37:47.495Z,15.32
2022-11-28T22:39:49.049Z,14.63
2022-11-28T22:41:52.288Z,13.55
2022-11-28T22:43:55.175Z,14.25
2022-11-28T22:45:57.522Z,13.57
2022-11-28T22:47:59.248Z,14.75
2022-11-28T22:52:02.165Z,13.25
2022-11-28T22:54:04.155Z,13.65
2022-11-28T22:56:07.688Z,13.90
2022-11-28T22:58:10.712Z,14.48
2022-11-28T23:00:13.261Z,13.55
2022-11-28T23:02:14.910Z,13.40
2022-11-28T23:06:20.314Z,12.07
2022-11-28T23:08:22.017Z,13.13
2022-11-28T23:12:25.161Z,13.00
2022-11-28T23:16:31.408Z,12.40
2022-11-28T23:18:33.030Z,13.35
2022-11-28T23:20:34.565Z,13.45
2022-11-28T23:22:36.144Z,13.57
2022-11-28T23:24:37.711Z,14.30
2022-11-28T23:26:39.238Z,14.10
2022-11-28T23:28:41.246Z,13.02
2022-11-28T23:30:44.168Z,13.13
2022-11-28T23:32:45.708Z,13.40
2022-11-28T23:34:47.452Z,13.52
2022-11-28T23:38:53.468Z,13.00
2022-11-28T23:40:55.871Z,13.10
2022-11-28T23:43:00.087Z,14.45
2022-11-28T23:45:01.731Z,13.70
2022-11-28T23:47:04.760Z,12.68
2022-11-28T23:49:07.110Z,13.48
2022-11-28T23:51:08.678Z,13.30
2022-11-28T23:53:10.228Z,13.98
2022-11-28T23:55:11.849Z,13.95
2022-11-28T23:57:13.403Z,13.35
2022-11-28T23:59:14.924Z,12.25
